Time;durP1;ratioP1;P1;durP2;ratioP2;P2;SDS_P1;SDS_P2;PMS_P1;PMS_P2;Temp;Humidity;BMP_temperature;BMP_pressure;BME280_temperature;BME280_humidity;BME280_pressure;Samples;Min_cycle;Max_cycle;Signal;HPM_P1;HPM_P2
2024/03/02 00:00:11;;;;;;;0.40;0.40;;;3.60;99.90;;;;;;4970002;28;20039;-80
2024/03/02 00:02:45;;;;;;;13.02;3.60;;;3.60;99.90;;;;;;4965064;28;20111;-80
2024/03/02 00:05:13;;;;;;;0.85;0.80;;;3.60;99.90;;;;;;4973851;28;20046;-79
2024/03/02 00:07:42;;;;;;;1.45;1.35;;;3.70;1.00;;;;;;4970492;28;20042;-78
2024/03/02 00:10:13;;;;;;;1.38;1.27;;;3.80;1.00;;;;;;4986592;28;20031;-79
2024/03/02 00:12:40;;;;;;;0.75;0.75;;;3.70;1.00;;;;;;4980520;28;20034;-79
2024/03/02 00:15:47;;;;;;;1.17;1.02;;;3.70;1.00;;;;;;4969124;28;20042;-80
2024/03/02 00:18:39;;;;;;;2.80;2.40;;;3.80;1.00;;;;;;4970689;28;20055;-80
2024/03/02 00:21:09;;;;;;;1.08;1.00;;;3.90;1.00;;;;;;4968868;28;20051;-79
2024/03/02 00:23:35;;;;;;;0.90;0.87;;;3.90;1.00;;;;;;4966111;28;20039;-79
2024/03/02 00:26:02;;;;;;;1.52;1.42;;;3.90;1.00;;;;;;4961592;28;20023;-79
2024/03/02 00:28:36;;;;;;;1.77;1.67;;;3.90;1.00;;;;;;4965604;28;20046;-79
2024/03/02 00:31:14;;;;;;;2.92;1.83;;;3.90;1.00;;;;;;4968260;28;20467;-80
2024/03/02 00:33:44;;;;;;;0.82;0.82;;;4.00;10.70;;;;;;4967512;28;20026;-80
2024/03/02 00:36:13;;;;;;;0.50;0.50;;;4.00;37.10;;;;;;4966763;28;20042;-80
2024/03/02 00:38:50;;;;;;;1.38;1.27;;;4.00;17.40;;;;;;4967558;28;20054;-78
2024/03/02 00:41:36;;;;;;;2.15;1.33;;;3.90;1.00;;;;;;4965796;28;20054;-79
2024/03/02 00:44:04;;;;;;;7.95;2.13;;;3.90;1.00;;;;;;4963573;28;20063;-79
2024/03/02 00:46:35;;;;;;;0.93;0.85;;;3.80;1.00;;;;;;4969069;28;20031;-80
2024/03/02 00:49:03;;;;;;;2.08;1.98;;;3.80;1.00;;;;;;4969941;28;20039;-80
2024/03/02 00:51:31;;;;;;;1.70;1.60;;;3.80;1.00;;;;;;4968404;28;20065;-79
2024/03/02 00:54:04;;;;;;;0.63;0.63;;;3.70;1.00;;;;;;4964697;28;20546;-79
2024/03/02 00:56:32;;;;;;;2.03;1.80;;;3.60;1.00;;;;;;4940767;28;20049;-79
2024/03/02 00:58:58;;;;;;;2.45;1.75;;;3.50;1.00;;;;;;4967918;28;20666;-80
2024/03/02 01:01:24;;;;;;;0.50;0.50;;;3.50;1.00;;;;;;4968390;28;20397;-79
2024/03/02 01:03:50;;;;;;;2.80;2.15;;;3.40;1.00;;;;;;4970563;28;20037;-79
2024/03/02 01:06:17;;;;;;;3.83;2.65;;;3.30;1.00;;;;;;4966212;28;20376;-80
2024/03/02 01:08:43;;;;;;;1.90;1.80;;;3.30;1.00;;;;;;4965612;28;20046;-79
2024/03/02 01:11:09;;;;;;;5.15;2.00;;;3.30;1.00;;;;;;4963771;28;20499;-80
2024/03/02 01:13:35;;;;;;;2.63;2.47;;;3.30;1.00;;;;;;4966115;28;20043;-79
2024/03/02 01:16:02;;;;;;;0.85;0.75;;;3.30;1.00;;;;;;4966311;28;20054;-80
2024/03/02 01:18:28;;;;;;;1.25;1.15;;;3.40;3.20;;;;;;4970664;28;20031;-81
2024/03/02 01:20:57;;;;;;;2.50;2.30;;;3.40;33.90;;;;;;4969852;28;20039;-80
2024/03/02 01:23:24;;;;;;;0.77;0.77;;;3.40;98.80;;;;;;4966704;28;20046;-80
2024/03/02 01:25:52;;;;;;;1.17;1.17;;;3.50;99.90;;;;;;4947640;28;20058;-78
2024/03/02 01:28:20;;;;;;;2.03;1.75;;;3.50;99.90;;;;;;4966533;28;20098;-80
2024/03/02 01:30:46;;;;;;;1.48;1.38;;;3.50;99.90;;;;;;4968026;28;20043;-80
2024/03/02 01:33:13;;;;;;;3.03;2.75;;;3.50;99.90;;;;;;4968888;28;20031;-80
2024/03/02 01:35:39;;;;;;;1.38;1.27;;;3.70;99.90;;;;;;4965962;28;20035;-78
2024/03/02 01:38:06;;;;;;;2.25;1.48;;;3.70;99.90;;;;;;4966034;28;20043;-80
2024/03/02 01:40:34;;;;;;;0.50;0.50;;;3.60;99.90;;;;;;4963141;28;20038;-79
2024/03/02 01:43:00;;;;;;;0.73;0.73;;;3.60;99.90;;;;;;4960356;28;20047;-79
2024/03/02 01:45:26;;;;;;;1.92;1.83;;;3.60;99.90;;;;;;4964985;28;20035;-80
2024/03/02 01:47:53;;;;;;;2.03;1.83;;;3.50;99.90;;;;;;4968144;28;20041;-79
2024/03/02 01:50:31;;;;;;;1.38;1.27;;;3.40;88.70;;;;;;4970219;28;20035;-79
2024/03/02 01:52:58;;;;;;;3.38;2.28;;;3.40;67.60;;;;;;4965514;28;20405;-80
2024/03/02 01:55:25;;;;;;;0.82;0.82;;;3.50;99.90;;;;;;4964008;28;20031;-79
2024/03/02 01:57:52;;;;;;;0.30;0.30;;;3.70;99.90;;;;;;4964157;28;20039;-80
2024/03/02 02:00:21;;;;;;;2.28;1.45;;;3.50;99.90;;;;;;4966446;28;20035;-79
2024/03/02 02:02:48;;;;;;;1.85;1.75;;;3.50;99.90;;;;;;4968094;28;20031;-81
2024/03/02 02:05:15;;;;;;;0.50;0.50;;;3.40;99.90;;;;;;4967956;28;20042;-77
2024/03/02 02:07:42;;;;;;;2.58;2.28;;;3.40;99.90;;;;;;4964147;28;20405;-78
2024/03/02 02:10:12;;;;;;;2.25;1.33;;;3.30;66.40;;;;;;4946775;28;20035;-80
2024/03/02 02:12:38;;;;;;;1.13;1.08;;;3.20;17.00;;;;;;4963531;28;20042;-80
2024/03/02 02:15:28;;;;;;;0.38;0.38;;;3.10;1.00;;;;;;4964936;28;20035;-80
2024/03/02 02:17:55;;;;;;;2.60;1.23;;;3.10;1.00;;;;;;4964966;28;20041;-80
2024/03/02 02:20:21;;;;;;;1.30;1.20;;;2.90;1.00;;;;;;4967678;28;20043;-80
2024/03/02 02:23:14;;;;;;;1.30;1.20;;;3.00;1.00;;;;;;4965301;28;20411;-79
2024/03/02 02:25:40;;;;;;;2.42;1.60;;;2.90;15.90;;;;;;4964829;28;20061;-80
2024/03/02 02:28:06;;;;;;;2.10;1.83;;;2.80;15.80;;;;;;4960641;28;20482;-80
2024/03/02 02:30:32;;;;;;;2.15;1.90;;;2.80;15.80;;;;;;4966417;28;20045;-80
2024/03/02 02:32:58;;;;;;;1.95;1.75;;;2.80;41.90;;;;;;4968622;28;20030;-80
2024/03/02 02:35:25;;;;;;;1.55;1.45;;;2.80;82.60;;;;;;4968067;28;20054;-80
2024/03/02 02:37:53;;;;;;;0.80;0.80;;;2.80;99.90;;;;;;4965914;28;20043;-80
2024/03/02 02:40:19;;;;;;;2.35;2.20;;;2.80;99.90;;;;;;4968465;28;20027;-80
2024/03/02 02:42:46;;;;;;;1.88;1.75;;;2.90;99.90;;;;;;4970242;28;20074;-80
2024/03/02 02:45:14;;;;;;;3.30;2.20;;;2.90;99.90;;;;;;4965522;28;20054;-77
2024/03/02 02:47:41;;;;;;;4.90;1.35;;;2.90;99.90;;;;;;4968833;28;20046;-79
2024/03/02 02:50:08;;;;;;;0.65;0.65;;;2.90;99.90;;;;;;4979153;28;20031;-79
2024/03/02 02:52:36;;;;;;;2.35;1.65;;;2.80;99.90;;;;;;4973464;28;20031;-79
2024/03/02 02:55:10;;;;;;;1.48;1.10;;;2.80;99.90;;;;;;4987707;28;20104;-78
2024/03/02 02:57:38;;;;;;;1.45;1.27;;;2.80;99.90;;;;;;4973370;28;20030;-79
2024/03/02 03:00:17;;;;;;;1.52;1.42;;;2.80;99.90;;;;;;4968249;28;20039;-79
2024/03/02 03:02:48;;;;;;;3.03;2.75;;;2.80;99.90;;;;;;4966381;28;20039;-78
2024/03/02 03:05:15;;;;;;;2.33;2.17;;;2.80;99.90;;;;;;4966179;28;20380;-77
2024/03/02 03:07:41;;;;;;;1.67;1.58;;;2.80;99.90;;;;;;4962925;28;20336;-80
2024/03/02 03:10:08;;;;;;;0.57;0.57;;;2.80;99.90;;;;;;4963675;28;20034;-79
2024/03/02 03:12:35;;;;;;;2.85;1.30;;;2.80;99.90;;;;;;4962122;28;20031;-79
2024/03/02 03:15:04;;;;;;;0.30;0.30;;;2.80;99.90;;;;;;4965265;28;20031;-79
2024/03/02 03:17:30;;;;;;;1.85;1.27;;;2.80;99.90;;;;;;4966165;28;20487;-79
2024/03/02 03:19:56;;;;;;;0.73;0.73;;;2.80;99.90;;;;;;4965294;28;20043;-79
2024/03/02 03:22:23;;;;;;;2.33;2.13;;;2.90;99.90;;;;;;4964370;28;20030;-79
2024/03/02 03:24:49;;;;;;;1.90;1.30;;;2.90;99.90;;;;;;4959558;28;20043;-80
2024/03/02 03:27:15;;;;;;;5.13;0.98;;;2.90;99.90;;;;;;4959979;28;20190;-79
2024/03/02 03:29:41;;;;;;;0.32;0.32;;;2.80;99.90;;;;;;4965389;28;20046;-79
2024/03/02 03:32:07;;;;;;;0.70;0.70;;;2.90;99.90;;;;;;4966961;28;20042;-79
2024/03/02 03:34:34;;;;;;;0.75;0.75;;;3.00;99.90;;;;;;4966723;28;20389;-79
2024/03/02 03:37:00;;;;;;;3.33;3.08;;;3.10;99.90;;;;;;4962824;28;20038;-79
2024/03/02 03:39:26;;;;;;;0.40;0.40;;;3.00;99.90;;;;;;4952766;28;20039;-80
2024/03/02 03:41:53;;;;;;;1.60;1.50;;;3.00;99.90;;;;;;4960178;28;20051;-79
2024/03/02 03:44:19;;;;;;;12.18;1.67;;;2.90;99.90;;;;;;4965146;28;20043;-79
2024/03/02 03:46:45;;;;;;;3.22;1.27;;;2.90;99.90;;;;;;4965686;28;20046;-79
2024/03/02 03:49:11;;;;;;;3.60;1.23;;;2.80;99.90;;;;;;4966369;28;20041;-79
2024/03/02 03:51:37;;;;;;;1.05;0.88;;;2.80;99.90;;;;;;4964468;28;20041;-79
2024/03/02 03:54:04;;;;;;;5.03;1.63;;;2.80;99.90;;;;;;4942053;28;20047;-79
2024/03/02 03:56:30;;;;;;;3.08;1.17;;;2.70;99.90;;;;;;4961652;28;20039;-79
2024/03/02 03:58:56;;;;;;;1.90;0.93;;;2.70;99.90;;;;;;4963527;28;20053;-79
2024/03/02 04:01:22;;;;;;;2.38;1.63;;;2.70;99.90;;;;;;4955488;28;20042;-79
2024/03/02 04:03:49;;;;;;;5.57;1.65;;;2.80;99.90;;;;;;4966531;28;20062;-78
2024/03/02 04:06:17;;;;;;;1.73;1.63;;;3.00;99.90;;;;;;4965357;28;20499;-79
2024/03/02 04:08:43;;;;;;;2.88;2.65;;;2.90;99.90;;;;;;4962658;28;20036;-80
2024/03/02 04:11:09;;;;;;;0.65;0.65;;;2.90;99.90;;;;;;4962629;28;20027;-80
2024/03/02 04:13:35;;;;;;;0.88;0.88;;;2.90;99.90;;;;;;4963192;28;20039;-79
2024/03/02 04:16:03;;;;;;;1.38;1.25;;;2.80;99.90;;;;;;4967563;28;20031;-79
2024/03/02 04:18:30;;;;;;;2.70;2.50;;;2.80;99.90;;;;;;4966139;28;20054;-80
2024/03/02 04:20:58;;;;;;;0.68;0.68;;;2.80;99.90;;;;;;4963644;28;20032;-79
2024/03/02 04:23:24;;;;;;;4.57;2.30;;;2.70;99.90;;;;;;4962344;28;20054;-79
2024/03/02 04:25:50;;;;;;;0.70;0.70;;;2.70;99.90;;;;;;4963799;28;20039;-80
2024/03/02 04:28:16;;;;;;;1.92;1.80;;;2.70;99.90;;;;;;4963262;28;20035;-80
2024/03/02 04:30:42;;;;;;;4.68;1.25;;;2.60;99.90;;;;;;4945809;28;20377;-80
2024/03/02 04:33:09;;;;;;;0.73;0.73;;;2.60;99.90;;;;;;4966129;28;20265;-79
2024/03/02 04:35:36;;;;;;;1.15;1.05;;;2.50;99.90;;;;;;4965541;28;20043;-79
2024/03/02 04:38:03;;;;;;;1.05;1.05;;;2.60;99.90;;;;;;4963384;28;20101;-80
2024/03/02 04:40:29;;;;;;;1.48;1.38;;;2.50;99.90;;;;;;4959440;28;20050;-79
2024/03/02 04:42:55;;;;;;;0.75;0.75;;;2.50;99.90;;;;;;4959549;28;20059;-79
2024/03/02 04:45:21;;;;;;;2.65;2.45;;;2.40;99.90;;;;;;4964398;28;20045;-80
2024/03/02 04:47:47;;;;;;;1.67;1.58;;;2.40;99.90;;;;;;4966721;28;20039;-78
2024/03/02 04:50:14;;;;;;;4.93;2.90;;;2.40;99.90;;;;;;4964961;28;20039;-79
2024/03/02 04:52:40;;;;;;;4.68;1.27;;;2.30;99.90;;;;;;4968926;28;20027;-79
2024/03/02 04:55:09;;;;;;;0.40;0.40;;;2.30;99.90;;;;;;4962447;28;20043;-79
2024/03/02 04:57:36;;;;;;;0.80;0.80;;;2.30;99.90;;;;;;4943992;28;20062;-79
2024/03/02 05:00:06;;;;;;;2.03;1.90;;;2.20;99.90;;;;;;4966387;28;20047;-80
2024/03/02 05:02:33;;;;;;;3.50;2.72;;;2.20;99.90;;;;;;4970006;28;20038;-80
2024/03/02 05:04:59;;;;;;;2.63;2.45;;;2.20;99.90;;;;;;4968476;28;20366;-78
2024/03/02 05:07:25;;;;;;;2.55;2.20;;;2.30;99.90;;;;;;4969334;28;20027;-80
2024/03/02 05:09:51;;;;;;;0.80;0.80;;;2.40;99.90;;;;;;4962858;28;20031;-77
2024/03/02 05:15:03;;;;;;;1.55;1.45;;;2.80;99.90;;;;;;4966190;28;20487;-79
2024/03/02 05:17:29;;;;;;;0.50;0.50;;;2.90;99.90;;;;;;4968755;28;20030;-79
2024/03/02 05:19:55;;;;;;;16.40;2.40;;;3.10;99.90;;;;;;4970317;28;20503;-79
2024/03/02 05:22:21;;;;;;;2.38;1.45;;;3.20;99.90;;;;;;4967870;28;20039;-79
2024/03/02 05:24:47;;;;;;;1.70;1.60;;;3.30;99.90;;;;;;4966946;28;20035;-79
2024/03/02 05:27:14;;;;;;;4.57;1.98;;;3.40;99.90;;;;;;4947756;28;20046;-79
2024/03/02 05:29:40;;;;;;;1.60;1.50;;;3.30;99.90;;;;;;4967306;28;20039;-80
2024/03/02 05:32:07;;;;;;;2.72;1.85;;;3.40;99.90;;;;;;4970186;28;20039;-79
2024/03/02 05:34:35;;;;;;;6.75;2.05;;;3.40;99.90;;;;;;4975228;28;20027;-79
2024/03/02 05:37:01;;;;;;;2.85;1.67;;;3.40;99.90;;;;;;4975896;28;20042;-78
2024/03/02 05:39:28;;;;;;;0.93;0.93;;;3.30;99.90;;;;;;4986141;28;20047;-78
2024/03/02 05:41:54;;;;;;;1.05;1.05;;;3.30;99.90;;;;;;4972828;28;20039;-78
2024/03/02 05:44:20;;;;;;;2.10;1.92;;;3.20;99.90;;;;;;4967743;28;20052;-80
2024/03/02 05:46:46;;;;;;;0.70;0.70;;;3.20;99.90;;;;;;4965869;28;20057;-80
2024/03/02 05:49:14;;;;;;;1.65;1.30;;;3.20;99.90;;;;;;4969138;28;20050;-80
2024/03/02 05:51:40;;;;;;;2.22;1.38;;;3.30;99.90;;;;;;4967058;28;20035;-79
2024/03/02 05:54:06;;;;;;;2.13;1.95;;;3.30;99.90;;;;;;4944277;28;20047;-79
2024/03/02 05:56:32;;;;;;;2.20;1.85;;;3.40;99.90;;;;;;4962404;28;20469;-79
2024/03/02 05:59:12;;;;;;;3.33;2.55;;;3.30;99.90;;;;;;4965061;28;20035;-80
2024/03/02 06:01:42;;;;;;;1.63;1.52;;;3.20;99.90;;;;;;4967051;28;20047;-79
2024/03/02 06:04:13;;;;;;;3.72;1.25;;;3.10;99.90;;;;;;4968511;28;20516;-79
2024/03/02 06:06:41;;;;;;;1.48;1.40;;;2.90;99.90;;;;;;4962178;28;20035;-79
2024/03/02 06:09:08;;;;;;;1.48;1.38;;;2.80;99.90;;;;;;4964629;28;20035;-80
2024/03/02 06:11:38;;;;;;;2.72;2.53;;;2.70;99.90;;;;;;4962044;28;20042;-80
2024/03/02 06:14:06;;;;;;;1.85;1.67;;;2.60;99.90;;;;;;4967797;28;20133;-80
2024/03/02 06:16:33;;;;;;;0.95;0.95;;;2.60;99.90;;;;;;4965071;28;20053;-79
2024/03/02 06:18:59;;;;;;;2.38;2.17;;;2.60;99.90;;;;;;4952343;28;20059;-79
2024/03/02 06:21:26;;;;;;;5.65;3.30;;;2.60;99.90;;;;;;4966194;28;20058;-78
2024/03/02 06:23:52;;;;;;;1.63;1.55;;;2.60;99.90;;;;;;4965423;28;20487;-77
2024/03/02 06:26:19;;;;;;;1.10;1.10;;;2.70;99.90;;;;;;4952001;29;20035;-74
2024/03/02 06:28:46;;;;;;;1.88;1.77;;;2.60;99.90;;;;;;4968254;28;20045;-75
2024/03/02 06:31:12;;;;;;;2.08;1.98;;;2.60;99.90;;;;;;4966781;28;20041;-75
2024/03/02 06:33:40;;;;;;;1.58;1.20;;;2.50;99.90;;;;;;4967117;28;20047;-75
2024/03/02 06:36:09;;;;;;;1.63;1.33;;;2.60;99.90;;;;;;4974371;28;20039;-75
2024/03/02 06:38:35;;;;;;;1.08;1.08;;;2.50;99.90;;;;;;4967373;28;20042;-75
2024/03/02 06:41:02;;;;;;;8.95;3.22;;;2.50;99.90;;;;;;4961171;28;20062;-75
2024/03/02 06:43:28;;;;;;;0.57;0.57;;;2.40;99.90;;;;;;4967748;28;20440;-75
2024/03/02 06:45:54;;;;;;;1.83;1.50;;;2.50;99.90;;;;;;4967444;28;20357;-75
2024/03/02 06:48:20;;;;;;;2.08;1.88;;;2.40;99.90;;;;;;4970775;28;20050;-75
2024/03/02 06:50:50;;;;;;;1.55;1.45;;;2.40;99.90;;;;;;4953042;28;20050;-74
2024/03/02 06:53:17;;;;;;;5.78;3.67;;;2.50;99.90;;;;;;4967403;28;20042;-75
2024/03/02 06:55:46;;;;;;;3.83;2.28;;;2.50;99.90;;;;;;4966343;28;20042;-74
2024/03/02 06:58:15;;;;;;;1.77;1.67;;;2.50;99.90;;;;;;4966718;28;20034;-75
2024/03/02 07:00:42;;;;;;;0.70;0.63;;;2.60;99.90;;;;;;4971246;28;20038;-75
2024/03/02 07:03:08;;;;;;;1.52;1.42;;;2.60;99.90;;;;;;4967431;28;20041;-75
2024/03/02 07:05:35;;;;;;;1.60;1.50;;;2.70;99.90;;;;;;4965472;28;20037;-75
2024/03/02 07:08:02;;;;;;;2.08;1.88;;;2.70;99.90;;;;;;4965888;28;20035;-75
2024/03/02 07:10:28;;;;;;;3.28;2.88;;;2.80;99.90;;;;;;4960942;28;20043;-75
2024/03/02 07:12:54;;;;;;;2.67;2.50;;;2.90;99.90;;;;;;4965080;28;20046;-75
2024/03/02 07:17:52;;;;;;;1.90;1.48;;;3.20;99.90;;;;;;4959257;28;20027;-76
2024/03/02 07:20:18;;;;;;;2.70;2.42;;;3.40;99.90;;;;;;4964595;28;20364;-75
2024/03/02 07:22:45;;;;;;;3.40;1.98;;;3.60;99.90;;;;;;4963043;28;20418;-75
2024/03/02 07:25:11;;;;;;;0.82;0.82;;;3.90;99.90;;;;;;4924602;28;20473;-74
2024/03/02 07:27:38;;;;;;;2.22;2.05;;;4.10;99.90;;;;;;4956770;28;20031;-74
2024/03/02 07:30:06;;;;;;;3.83;0.90;;;4.30;44.50;;;;;;4965438;28;20050;-76
2024/03/02 07:32:32;;;;;;;2.20;2.00;;;4.60;1.00;;;;;;4964791;28;20034;-75
2024/03/02 07:34:58;;;;;;;3.20;2.65;;;4.90;1.00;;;;;;4966282;28;20047;-75
2024/03/02 07:37:24;;;;;;;2.72;2.33;;;5.20;99.90;;;;;;4964943;28;20035;-75
2024/03/02 07:39:51;;;;;;;3.55;3.30;;;5.70;99.90;;;;;;4964839;28;20043;-74
2024/03/02 07:42:17;;;;;;;2.95;2.75;;;6.20;99.90;;;;;;4962176;28;20061;-75
2024/03/02 07:44:45;;;;;;;2.55;2.35;;;6.60;30.80;;;;;;4955328;28;20033;-74
2024/03/02 07:47:11;;;;;;;1.58;1.48;;;7.10;1.00;;;;;;4965419;28;20472;-75
2024/03/02 07:49:38;;;;;;;1.80;1.70;;;7.60;1.00;;;;;;4963587;28;20041;-76
2024/03/02 07:52:04;;;;;;;1.90;1.80;;;8.00;99.90;;;;;;4952134;28;20035;-76
2024/03/02 07:54:31;;;;;;;1.15;0.93;;;8.10;99.90;;;;;;4931183;28;20495;-75
2024/03/02 07:56:58;;;;;;;1.50;1.40;;;8.20;99.90;;;;;;4977763;28;20042;-75
2024/03/02 07:59:24;;;;;;;3.63;2.38;;;8.50;99.90;;;;;;4986794;28;20498;-75
2024/03/02 08:01:51;;;;;;;2.47;2.15;;;8.70;99.90;;;;;;4964475;28;20034;-75
2024/03/02 08:04:17;;;;;;;2.03;1.85;;;8.90;65.40;;;;;;4961849;28;20043;-75
2024/03/02 08:06:44;;;;;;;2.25;1.88;;;9.00;14.90;;;;;;4965874;28;20036;-74
2024/03/02 08:09:11;;;;;;;4.13;2.15;;;9.10;1.00;;;;;;4951541;28;20043;-75
2024/03/02 08:11:37;;;;;;;2.03;1.42;;;9.20;1.00;;;;;;4955533;28;20058;-74
2024/03/02 08:14:03;;;;;;;1.00;1.00;;;9.50;1.00;;;;;;4970194;28;20053;-74
2024/03/02 08:16:29;;;;;;;3.35;1.65;;;9.50;1.00;;;;;;4969257;28;20027;-74
2024/03/02 08:18:59;;;;;;;2.40;0.85;;;9.90;1.00;;;;;;4970775;28;20031;-73
2024/03/02 08:21:25;;;;;;;0.50;0.50;;;10.20;99.90;;;;;;4972650;28;20065;-74
2024/03/02 08:23:52;;;;;;;3.88;1.25;;;10.50;99.90;;;;;;4979260;28;20031;-74
2024/03/02 08:26:18;;;;;;;0.50;0.50;;;10.50;99.90;;;;;;4973931;28;20033;-75
2024/03/02 08:28:44;;;;;;;0.82;0.77;;;10.50;99.90;;;;;;4965395;28;20050;-75
2024/03/02 08:31:10;;;;;;;1.52;1.42;;;10.50;99.90;;;;;;4979333;28;20038;-76
2024/03/02 08:33:36;;;;;;;2.95;0.60;;;10.40;99.90;;;;;;4960219;28;20063;-74
2024/03/02 08:36:03;;;;;;;3.80;1.45;;;10.10;99.90;;;;;;4966591;28;20030;-75
2024/03/02 08:38:29;;;;;;;1.58;1.38;;;10.20;99.90;;;;;;4971502;28;20035;-74
2024/03/02 08:40:57;;;;;;;2.38;1.00;;;10.30;99.90;;;;;;4970346;28;20050;-74
2024/03/02 08:43:23;;;;;;;0.85;0.85;;;10.30;99.90;;;;;;4969330;28;20062;-74
2024/03/02 08:45:50;;;;;;;1.35;1.25;;;10.30;71.80;;;;;;4969859;28;20039;-75
2024/03/02 08:48:18;;;;;;;15.02;1.42;;;10.40;99.90;;;;;;4968925;28;20165;-75
2024/03/02 08:50:44;;;;;;;0.63;0.63;;;10.50;58.80;;;;;;4967897;28;20046;-75
2024/03/02 08:53:10;;;;;;;0.63;0.63;;;10.40;17.00;;;;;;4967632;28;20138;-76
2024/03/02 08:55:36;;;;;;;2.40;1.15;;;10.40;34.50;;;;;;4962688;28;20035;-76
2024/03/02 08:58:03;;;;;;;0.52;0.35;;;10.50;53.10;;;;;;4969055;28;20038;-75
2024/03/02 09:00:29;;;;;;;3.03;1.30;;;10.40;1.00;;;;;;4969532;28;20400;-76
2024/03/02 09:02:55;;;;;;;0.43;0.43;;;10.50;1.00;;;;;;4973265;28;20038;-75
2024/03/02 09:05:21;;;;;;;3.30;1.05;;;10.60;1.00;;;;;;4971127;28;20053;-76
2024/03/02 09:07:47;;;;;;;1.88;1.30;;;10.70;1.00;;;;;;4969269;28;20476;-76
2024/03/02 09:10:14;;;;;;;0.70;0.70;;;10.70;1.00;;;;;;4968800;28;20404;-76
2024/03/02 09:12:40;;;;;;;2.03;0.77;;;10.60;1.00;;;;;;4970418;28;20385;-76
2024/03/02 09:15:07;;;;;;;3.00;1.27;;;10.80;1.00;;;;;;4969729;28;20411;-76
2024/03/02 09:17:33;;;;;;;0.93;0.80;;;10.80;1.00;;;;;;4970015;28;20027;-76
2024/03/02 09:20:00;;;;;;;1.95;1.52;;;11.00;1.00;;;;;;4959732;28;20054;-76
2024/03/02 09:22:26;;;;;;;0.93;0.85;;;11.00;1.00;;;;;;4966819;28;20385;-76
2024/03/02 09:24:52;;;;;;;0.98;0.73;;;11.10;1.00;;;;;;4967839;28;20039;-76
2024/03/02 09:27:18;;;;;;;1.65;1.55;;;11.20;1.00;;;;;;4966740;28;20035;-76
2024/03/02 09:29:44;;;;;;;2.28;0.77;;;11.30;1.00;;;;;;4968789;28;20030;-76
2024/03/02 09:32:13;;;;;;;1.50;1.40;;;11.80;1.00;;;;;;4966686;28;20031;-76
2024/03/02 09:34:40;;;;;;;0.63;0.63;;;12.10;99.90;;;;;;4968479;28;20046;-76
2024/03/02 09:37:07;;;;;;;0.55;0.43;;;12.30;99.90;;;;;;4966351;28;20030;-75
2024/03/02 09:39:33;;;;;;;0.50;0.47;;;12.50;99.90;;;;;;4964076;28;20031;-75
2024/03/02 09:41:59;;;;;;;0.40;0.40;;;12.20;99.90;;;;;;4963222;28;20039;-75
2024/03/02 09:44:26;;;;;;;0.82;0.82;;;12.20;99.90;;;;;;4957984;28;20047;-76
2024/03/02 09:46:52;;;;;;;0.47;0.47;;;12.30;99.90;;;;;;4947758;29;20035;-75
2024/03/02 09:49:18;;;;;;;0.40;0.40;;;12.60;99.90;;;;;;4948586;29;20500;-74
2024/03/02 09:51:47;;;;;;;0.52;0.52;;;12.80;99.90;;;;;;4947526;29;20047;-74
2024/03/02 09:54:15;;;;;;;0.55;0.55;;;12.80;99.90;;;;;;4944032;29;20470;-76
2024/03/02 09:56:41;;;;;;;0.75;0.65;;;12.90;99.90;;;;;;4942371;29;20401;-76
2024/03/02 09:59:07;;;;;;;1.05;1.00;;;12.90;99.90;;;;;;4946358;29;20484;-74
2024/03/02 10:01:33;;;;;;;2.35;1.05;;;12.60;99.90;;;;;;4948290;29;20039;-76
2024/03/02 10:04:00;;;;;;;0.40;0.40;;;12.50;99.90;;;;;;4949015;29;20046;-77
2024/03/02 10:06:28;;;;;;;1.00;0.88;;;12.80;99.90;;;;;;4944976;29;20462;-77
2024/03/02 10:08:56;;;;;;;1.10;0.77;;;12.80;99.90;;;;;;4945543;29;20028;-76
2024/03/02 10:11:37;;;;;;;0.30;0.22;;;12.70;99.90;;;;;;4942779;29;20245;-77
2024/03/02 10:14:07;;;;;;;;;;;12.70;99.90;;;;;;4949653;28;20059;-76
2024/03/02 10:16:38;;;;;;;1.00;0.73;;;12.80;99.90;;;;;;4945771;29;19910;-78
2024/03/02 10:19:20;;;;;;;0.47;0.25;;;12.80;99.90;;;;;;4948262;29;20448;-78
2024/03/02 10:21:50;;;;;;;2.17;1.83;;;13.00;99.90;;;;;;4946886;29;20035;-78
2024/03/02 10:24:18;;;;;;;0.52;0.52;;;13.00;99.90;;;;;;4944612;29;20043;-77
2024/03/02 10:26:44;;;;;;;0.98;0.40;;;13.20;99.90;;;;;;4946020;29;20038;-77
2024/03/02 10:29:11;;;;;;;1.70;0.95;;;13.10;99.90;;;;;;4945987;28;20047;-77
2024/03/02 10:31:43;;;;;;;0.45;0.45;;;13.10;99.90;;;;;;4947089;29;20461;-77
2024/03/02 10:34:10;;;;;;;0.73;0.73;;;13.20;99.90;;;;;;4946996;29;20035;-77
2024/03/02 10:36:40;;;;;;;0.40;0.40;;;13.20;99.90;;;;;;4946764;29;20442;-77
2024/03/02 10:39:08;;;;;;;3.40;0.77;;;13.30;99.90;;;;;;4945007;29;20032;-79
2024/03/02 10:41:35;;;;;;;0.55;0.55;;;13.40;99.90;;;;;;4942763;29;20043;-79
2024/03/02 10:44:03;;;;;;;0.63;0.63;;;13.50;99.90;;;;;;4958885;28;20043;-80
2024/03/02 10:46:31;;;;;;;0.55;0.55;;;13.60;99.90;;;;;;4966437;28;20042;-78
2024/03/02 10:48:59;;;;;;;0.55;0.50;;;13.60;99.90;;;;;;4948076;28;20046;-78
2024/03/02 10:51:27;;;;;;;0.30;0.30;;;13.70;99.90;;;;;;4965534;28;20042;-78
2024/03/02 10:53:53;;;;;;;0.43;0.38;;;13.70;99.90;;;;;;4960629;28;20030;-78
2024/03/02 10:56:28;;;;;;;0.82;0.43;;;13.70;99.90;;;;;;4959796;28;20030;-78
2024/03/02 10:59:21;;;;;;;0.20;0.20;;;13.80;99.90;;;;;;4965947;28;20506;-78
2024/03/02 11:01:48;;;;;;;0.20;0.20;;;13.70;99.90;;;;;;4964519;28;20389;-78
2024/03/02 11:04:17;;;;;;;0.80;0.65;;;13.80;99.90;;;;;;4968422;28;20031;-79
2024/03/02 11:06:49;;;;;;;3.40;0.52;;;14.00;99.90;;;;;;4962803;28;20050;-78
2024/03/02 11:09:19;;;;;;;0.20;0.20;;;14.20;99.90;;;;;;4969347;28;20045;-77
2024/03/02 11:11:55;;;;;;;0.30;0.30;;;14.30;99.90;;;;;;4970854;28;20046;-75
2024/03/02 11:14:25;;;;;;;0.22;0.22;;;14.40;99.90;;;;;;4960561;28;20400;-75
2024/03/02 11:16:52;;;;;;;0.50;0.47;;;14.50;99.90;;;;;;4966300;28;20035;-75
2024/03/02 11:19:18;;;;;;;0.30;0.30;;;14.50;99.90;;;;;;4966324;28;20066;-75
2024/03/02 11:21:46;;;;;;;0.22;0.20;;;14.40;99.90;;;;;;4968377;28;20041;-75
2024/03/02 11:24:24;;;;;;;0.20;0.20;;;14.40;99.90;;;;;;4961585;28;20038;-75
2024/03/02 11:26:51;;;;;;;0.20;0.20;;;14.40;99.90;;;;;;4961819;28;20046;-75
2024/03/02 11:29:35;;;;;;;0.43;0.43;;;14.50;99.90;;;;;;4968764;28;20409;-75
2024/03/02 11:32:06;;;;;;;0.10;0.10;;;14.30;99.90;;;;;;4967480;28;20053;-74
2024/03/02 11:34:34;;;;;;;0.70;0.35;;;14.40;99.90;;;;;;4964299;28;20050;-74
2024/03/02 11:37:04;;;;;;;0.20;0.20;;;14.50;99.90;;;;;;4964768;28;20465;-75
2024/03/02 11:39:32;;;;;;;0.10;0.10;;;14.60;99.90;;;;;;4960550;28;20464;-76
2024/03/02 11:41:59;;;;;;;0.15;0.15;;;14.80;99.90;;;;;;4959311;28;20062;-75
2024/03/02 11:44:28;;;;;;;0.20;0.20;;;15.00;99.90;;;;;;4962269;28;20051;-75
2024/03/02 11:47:08;;;;;;;0.55;0.43;;;14.90;99.90;;;;;;4965087;28;20041;-75
2024/03/02 11:49:44;;;;;;;1.08;0.52;;;14.90;99.90;;;;;;4966530;28;20038;-75
2024/03/02 11:52:12;;;;;;;0.50;0.50;;;14.90;99.90;;;;;;4961730;28;20469;-74
2024/03/02 11:54:41;;;;;;;0.20;0.20;;;14.80;99.90;;;;;;4962910;28;20035;-75
2024/03/02 11:57:08;;;;;;;0.40;0.40;;;14.90;99.90;;;;;;4965927;28;20039;-75
2024/03/02 11:59:34;;;;;;;0.65;0.40;;;14.80;99.90;;;;;;4961315;28;20031;-76
2024/03/02 12:02:01;;;;;;;0.10;0.10;;;15.00;99.90;;;;;;4964428;28;20473;-76
2024/03/02 12:04:28;;;;;;;0.30;0.30;;;15.10;99.90;;;;;;4964226;28;20039;-76
2024/03/02 12:07:03;;;;;;;0.20;0.20;;;15.20;99.90;;;;;;4964414;28;20047;-76
2024/03/02 12:09:30;;;;;;;0.10;0.10;;;15.30;99.90;;;;;;4960403;28;20455;-74
2024/03/02 12:12:06;;;;;;;1.10;0.50;;;15.30;99.90;;;;;;4957636;28;20045;-75
2024/03/02 12:14:34;;;;;;;0.70;0.40;;;15.30;99.90;;;;;;4961542;28;20351;-76
2024/03/02 12:17:00;;;;;;;0.25;0.25;;;15.20;99.90;;;;;;4938497;28;20035;-76
2024/03/02 12:19:29;;;;;;;0.68;0.30;;;15.30;99.90;;;;;;4966260;28;20056;-76
2024/03/02 12:22:00;;;;;;;0.38;0.38;;;15.50;99.90;;;;;;4964457;28;20023;-76
2024/03/02 12:24:28;;;;;;;0.10;0.10;;;15.40;99.90;;;;;;4957406;28;20035;-75
2024/03/02 12:26:54;;;;;;;1.13;0.35;;;15.30;99.90;;;;;;4954003;28;20035;-76
2024/03/02 12:29:21;;;;;;;0.25;0.20;;;15.30;99.90;;;;;;4964124;28;20389;-76
2024/03/02 12:31:52;;;;;;;0.47;0.30;;;15.40;99.90;;;;;;4965760;28;20066;-76
2024/03/02 12:34:19;;;;;;;0.95;0.28;;;15.30;99.90;;;;;;4962868;28;20047;-75
2024/03/02 12:36:53;;;;;;;0.10;0.10;;;15.40;99.90;;;;;;4963270;28;20031;-75
2024/03/02 12:39:20;;;;;;;0.20;0.20;;;15.50;99.90;;;;;;4959769;28;20046;-75
2024/03/02 12:41:46;;;;;;;0.20;0.20;;;15.60;99.90;;;;;;4961787;28;20055;-75
2024/03/02 12:44:13;;;;;;;0.88;0.45;;;15.50;99.90;;;;;;4963438;28;20055;-76
2024/03/02 12:46:39;;;;;;;0.25;0.25;;;15.50;99.90;;;;;;4957631;28;20051;-76
2024/03/02 12:49:09;;;;;;;0.20;0.20;;;15.30;99.90;;;;;;4967120;28;20039;-75
2024/03/02 12:51:36;;;;;;;0.30;0.30;;;15.20;99.90;;;;;;4965931;28;20042;-76
2024/03/02 12:54:03;;;;;;;0.35;0.30;;;15.10;99.90;;;;;;4963347;28;20039;-75
2024/03/02 12:56:29;;;;;;;0.10;0.10;;;15.20;99.90;;;;;;4957843;28;20035;-76
2024/03/02 12:58:56;;;;;;;0.00;0.00;;;15.30;99.90;;;;;;4962290;28;20038;-75
2024/03/02 13:01:22;;;;;;;0.10;0.10;;;15.50;99.90;;;;;;4963311;28;20050;-75
2024/03/02 13:03:51;;;;;;;0.10;0.10;;;15.60;99.90;;;;;;4946002;28;20053;-76